createdAt,value
2018-06-30T00:00:25.310Z,3.90
2018-06-30T00:02:54.135Z,4.22
2018-06-30T00:05:22.990Z,3.72
2018-06-30T00:07:51.841Z,3.60
2018-06-30T00:10:20.723Z,3.50
2018-06-30T00:12:49.516Z,3.25
2018-06-30T00:15:19.091Z,3.30
2018-06-30T00:17:47.931Z,3.10
2018-06-30T00:20:16.809Z,3.65
2018-06-30T00:22:45.691Z,3.00
2018-06-30T00:25:14.559Z,3.45
2018-06-30T00:27:43.386Z,3.20
2018-06-30T00:30:12.972Z,2.97
2018-06-30T00:32:41.807Z,2.87
2018-06-30T00:35:10.643Z,3.12
2018-06-30T00:37:39.558Z,3.08
2018-06-30T00:40:08.397Z,3.53
2018-06-30T00:42:37.217Z,3.00
2018-06-30T00:45:06.804Z,3.28
2018-06-30T00:47:35.655Z,2.97
2018-06-30T00:50:04.562Z,2.97
2018-06-30T00:52:34.088Z,3.33
2018-06-30T00:55:02.923Z,3.00
2018-06-30T00:57:31.764Z,2.97
2018-06-30T01:00:00.622Z,3.12
2018-06-30T01:02:29.451Z,3.00
2018-06-30T01:04:58.289Z,3.20
2018-06-30T01:07:27.142Z,2.92
2018-06-30T01:09:56.719Z,3.30
2018-06-30T01:12:25.558Z,3.15
2018-06-30T01:14:54.415Z,3.25
2018-06-30T01:17:23.255Z,3.37
2018-06-30T01:19:52.107Z,3.25
2018-06-30T01:22:20.984Z,3.33
2018-06-30T01:24:49.793Z,3.35
2018-06-30T01:27:18.633Z,3.42
2018-06-30T01:29:47.478Z,3.20
2018-06-30T01:32:16.424Z,3.37
2018-06-30T01:34:45.256Z,3.22
2018-06-30T01:37:14.091Z,3.22
2018-06-30T01:39:42.931Z,3.35
2018-06-30T01:42:11.781Z,3.20
2018-06-30T01:44:40.618Z,3.47
2018-06-30T01:47:09.453Z,3.10
2018-06-30T01:49:38.308Z,3.08
2018-06-30T01:52:07.160Z,3.15
2018-06-30T01:54:36.006Z,3.10
2018-06-30T01:57:04.861Z,2.83
2018-06-30T01:59:33.742Z,3.53
2018-06-30T02:02:02.579Z,3.28
2018-06-30T02:04:31.418Z,2.92
2018-06-30T02:07:00.583Z,3.22
2018-06-30T02:09:29.429Z,3.10
2018-06-30T02:11:58.289Z,2.50
2018-06-30T02:14:27.144Z,3.58
2018-06-30T02:16:55.994Z,3.17
2018-06-30T02:19:24.833Z,3.42
2018-06-30T02:21:53.687Z,3.20
2018-06-30T02:24:22.527Z,3.20
2018-06-30T02:26:52.108Z,3.15
2018-06-30T02:29:20.949Z,2.83
2018-06-30T02:31:49.792Z,3.25
2018-06-30T02:34:18.651Z,3.28
2018-06-30T02:36:47.474Z,3.30
2018-06-30T02:39:16.333Z,3.37
2018-06-30T02:41:45.175Z,3.20
2018-06-30T02:44:14.755Z,3.00
2018-06-30T02:46:43.602Z,3.05
2018-06-30T02:49:12.442Z,3.42
2018-06-30T02:51:41.292Z,3.20
2018-06-30T02:54:10.132Z,3.40
2018-06-30T02:56:39.713Z,3.17
2018-06-30T02:59:08.614Z,3.00
2018-06-30T03:01:37.415Z,2.97
2018-06-30T03:04:06.995Z,2.70
2018-06-30T03:06:35.833Z,2.50
2018-06-30T03:09:04.676Z,2.70
2018-06-30T03:11:33.518Z,2.80
2018-06-30T03:14:02.368Z,2.87
2018-06-30T03:16:31.218Z,2.60
2018-06-30T03:19:00.067Z,2.87
2018-06-30T03:21:28.906Z,2.78
2018-06-30T03:23:57.758Z,2.83
2018-06-30T03:26:26.599Z,2.83
2018-06-30T03:28:56.016Z,2.90
2018-06-30T03:31:25.668Z,2.78
2018-06-30T03:33:54.430Z,3.12
2018-06-30T03:36:24.017Z,2.95
2018-06-30T03:38:52.880Z,2.58
2018-06-30T03:41:21.710Z,2.90
2018-06-30T03:43:50.537Z,2.80
2018-06-30T03:46:19.459Z,2.65
2018-06-30T03:48:48.230Z,3.10
2018-06-30T03:51:17.115Z,2.95
2018-06-30T03:53:45.908Z,2.75
2018-06-30T03:56:15.058Z,2.60
2018-06-30T03:58:43.892Z,2.90
2018-06-30T04:01:12.735Z,3.05
2018-06-30T04:03:42.327Z,2.45
2018-06-30T04:06:11.159Z,2.83
2018-06-30T04:08:39.991Z,2.60
2018-06-30T04:11:08.816Z,2.62
2018-06-30T04:13:37.661Z,2.53
2018-06-30T04:16:06.497Z,2.80
2018-06-30T04:18:35.405Z,2.80
2018-06-30T04:21:04.246Z,2.80
2018-06-30T04:23:33.820Z,2.55
2018-06-30T04:26:02.655Z,2.75
2018-06-30T04:28:31.498Z,2.70
2018-06-30T04:31:00.331Z,2.80
2018-06-30T04:33:29.903Z,2.50
2018-06-30T04:35:58.740Z,2.60
2018-06-30T04:38:27.584Z,2.45
2018-06-30T04:40:56.425Z,2.53
2018-06-30T04:43:25.278Z,2.50
2018-06-30T04:45:54.859Z,2.75
2018-06-30T04:48:23.807Z,2.50
2018-06-30T04:50:52.639Z,2.70
2018-06-30T04:53:21.473Z,2.90
2018-06-30T04:55:51.054Z,3.03
2018-06-30T04:58:19.912Z,3.00
2018-06-30T05:00:48.742Z,2.90
2018-06-30T05:03:18.322Z,2.87
2018-06-30T05:05:47.155Z,3.17
2018-06-30T05:08:16.742Z,2.75
2018-06-30T05:10:45.602Z,3.10
2018-06-30T05:13:14.442Z,3.17
2018-06-30T05:15:43.280Z,2.62
2018-06-30T05:18:12.196Z,3.10
2018-06-30T05:20:41.032Z,2.60
2018-06-30T05:23:09.866Z,3.20
2018-06-30T05:25:38.705Z,2.60
2018-06-30T05:28:07.546Z,2.67
2018-06-30T05:30:36.385Z,3.03
2018-06-30T05:33:05.237Z,2.80
2018-06-30T05:35:34.812Z,3.00
2018-06-30T05:38:03.654Z,2.72
2018-06-30T05:40:32.499Z,2.97
2018-06-30T05:43:01.336Z,3.15
2018-06-30T05:45:30.189Z,2.90
2018-06-30T05:47:59.033Z,2.90
2018-06-30T05:50:27.884Z,2.90
2018-06-30T05:52:56.722Z,2.80
2018-06-30T05:55:25.565Z,3.00
2018-06-30T05:57:55.162Z,3.20
2018-06-30T06:00:24.013Z,2.67
2018-06-30T06:02:52.846Z,2.85
2018-06-30T06:05:22.447Z,2.90
2018-06-30T06:07:52.036Z,2.78
2018-06-30T06:10:20.891Z,2.70
2018-06-30T06:12:49.791Z,2.80
2018-06-30T06:15:18.659Z,3.22
2018-06-30T06:17:47.427Z,3.20
2018-06-30T06:20:17.015Z,2.80
2018-06-30T06:22:45.860Z,2.70
2018-06-30T06:25:14.700Z,3.10
2018-06-30T06:27:43.587Z,2.92
2018-06-30T06:30:12.385Z,3.08
2018-06-30T06:32:42.038Z,2.85
2018-06-30T06:35:10.819Z,3.30
2018-06-30T06:37:39.665Z,3.15
2018-06-30T06:40:09.255Z,3.10
2018-06-30T06:42:38.097Z,3.20
2018-06-30T06:45:06.938Z,3.15
2018-06-30T06:47:35.779Z,2.90
2018-06-30T06:50:04.631Z,2.67
2018-06-30T06:52:34.224Z,3.20
2018-06-30T06:55:03.061Z,3.20
2018-06-30T06:57:31.902Z,3.00
2018-06-30T07:00:00.742Z,3.33
2018-06-30T07:02:30.326Z,2.90
2018-06-30T07:04:59.228Z,3.17
2018-06-30T07:07:28.057Z,3.20
2018-06-30T07:09:56.896Z,2.35
2018-06-30T07:12:25.738Z,2.50
2018-06-30T07:14:54.583Z,2.85
2018-06-30T07:17:23.434Z,3.17
2018-06-30T07:19:52.277Z,2.78
2018-06-30T07:22:21.130Z,3.12
2018-06-30T07:24:50.021Z,2.97
2018-06-30T07:27:18.858Z,2.67
2018-06-30T07:29:48.480Z,2.85
2018-06-30T07:32:17.294Z,2.80
2018-06-30T07:34:46.131Z,2.80
2018-06-30T07:37:15.014Z,2.80
2018-06-30T07:39:43.817Z,2.60
2018-06-30T07:42:13.389Z,2.90
2018-06-30T07:44:42.228Z,2.87
2018-06-30T07:47:11.073Z,2.67
2018-06-30T07:49:40.084Z,2.60
2018-06-30T07:52:08.761Z,2.87
2018-06-30T07:54:37.722Z,2.90
2018-06-30T07:57:06.529Z,2.55
2018-06-30T07:59:35.362Z,2.70
2018-06-30T08:02:04.273Z,2.60
2018-06-30T08:04:33.064Z,2.87
2018-06-30T08:07:01.896Z,2.50
2018-06-30T08:09:30.857Z,2.75
2018-06-30T08:11:59.740Z,3.00
2018-06-30T08:14:28.536Z,3.03
2018-06-30T08:16:57.370Z,2.50
2018-06-30T08:19:26.225Z,2.80
2018-06-30T08:21:55.068Z,2.58
2018-06-30T08:24:24.025Z,2.67
2018-06-30T08:26:52.831Z,2.83
2018-06-30T08:29:22.415Z,2.67
2018-06-30T08:31:51.252Z,3.03
2018-06-30T08:34:20.193Z,2.65
2018-06-30T08:36:49.077Z,3.00
2018-06-30T08:39:18.035Z,2.62
2018-06-30T08:41:46.850Z,2.92
2018-06-30T08:44:15.808Z,3.05
2018-06-30T08:46:44.623Z,2.85
2018-06-30T08:49:13.568Z,3.47
2018-06-30T08:51:42.410Z,2.90
2018-06-30T08:54:11.204Z,3.08
2018-06-30T08:56:40.106Z,3.30
2018-06-30T08:59:08.907Z,2.72
2018-06-30T09:01:37.759Z,3.03
2018-06-30T09:04:06.695Z,2.87
2018-06-30T09:06:35.680Z,2.92
2018-06-30T09:09:04.611Z,3.10
2018-06-30T09:11:33.406Z,2.70
2018-06-30T09:14:02.259Z,3.15
2018-06-30T09:16:31.322Z,3.08
2018-06-30T09:19:00.137Z,2.80
2018-06-30T09:21:29.704Z,3.05
2018-06-30T09:23:58.531Z,3.15
2018-06-30T09:26:27.356Z,2.97
2018-06-30T09:28:56.211Z,3.55
2018-06-30T09:31:25.119Z,3.47
2018-06-30T09:33:54.706Z,3.08
2018-06-30T09:36:23.554Z,3.40
2018-06-30T09:38:52.652Z,3.50
2018-06-30T09:41:21.538Z,3.47
2018-06-30T09:43:50.529Z,3.50
2018-06-30T09:46:19.559Z,3.47
2018-06-30T09:48:48.294Z,3.08
2018-06-30T09:51:17.255Z,3.40
2018-06-30T09:53:46.059Z,3.37
2018-06-30T09:56:14.892Z,3.30
2018-06-30T09:58:43.805Z,3.28
2018-06-30T10:01:12.647Z,3.42
2018-06-30T10:03:41.602Z,3.58
2018-06-30T10:06:10.431Z,3.70
2018-06-30T10:08:39.280Z,3.65
2018-06-30T10:11:08.189Z,3.03
2018-06-30T10:16:05.833Z,3.40
2018-06-30T10:18:34.680Z,3.60
2018-06-30T10:21:03.618Z,3.30
2018-06-30T10:23:33.212Z,3.50
2018-06-30T10:26:02.252Z,3.12
2018-06-30T10:28:31.548Z,3.42
2018-06-30T10:31:01.167Z,3.70
2018-06-30T10:33:30.023Z,3.33
2018-06-30T10:35:58.985Z,3.08
2018-06-30T10:38:27.976Z,3.78
2018-06-30T10:40:56.770Z,3.33
2018-06-30T10:43:25.881Z,3.60
2018-06-30T10:45:54.875Z,3.50
2018-06-30T10:48:23.675Z,3.10
2018-06-30T10:50:52.514Z,3.40
2018-06-30T10:53:21.391Z,3.45
2018-06-30T10:55:50.242Z,3.17
2018-06-30T10:58:19.202Z,3.00
2018-06-30T11:00:48.061Z,3.00
2018-06-30T11:03:17.733Z,3.28
2018-06-30T11:05:46.604Z,3.10
2018-06-30T11:08:15.523Z,3.50
2018-06-30T11:10:44.336Z,3.33
2018-06-30T11:13:13.400Z,3.25
2018-06-30T11:15:43.007Z,3.30
2018-06-30T11:18:11.950Z,2.90
2018-06-30T11:20:40.832Z,3.25
2018-06-30T11:23:09.759Z,3.22
2018-06-30T11:25:38.596Z,2.92
2018-06-30T11:28:07.450Z,3.03
2018-06-30T11:30:36.294Z,3.45
2018-06-30T11:33:05.297Z,3.65
2018-06-30T11:35:34.059Z,2.97
2018-06-30T11:38:02.904Z,5.15
2018-06-30T11:40:31.946Z,4.40
2018-06-30T11:43:00.878Z,3.10
2018-06-30T11:45:29.757Z,3.58
2018-06-30T11:47:59.478Z,4.43
2018-06-30T11:50:28.376Z,3.83
2018-06-30T11:52:57.744Z,2.97
2018-06-30T11:55:26.787Z,3.22
2018-06-30T11:57:55.769Z,3.12
2018-06-30T12:00:24.571Z,3.22
2018-06-30T12:02:54.066Z,3.00
2018-06-30T12:05:22.902Z,3.00
2018-06-30T12:07:51.845Z,3.50
2018-06-30T12:10:20.923Z,3.78
2018-06-30T12:12:50.177Z,3.05
2018-06-30T12:15:19.104Z,2.80
2018-06-30T12:17:47.962Z,2.87
2018-06-30T12:20:16.955Z,2.90
2018-06-30T12:22:45.774Z,3.22
2018-06-30T12:25:15.836Z,3.05
2018-06-30T12:27:44.867Z,3.80
2018-06-30T12:30:13.853Z,2.92
2018-06-30T12:32:42.804Z,3.08
2018-06-30T12:35:11.597Z,3.10
2018-06-30T12:37:40.442Z,3.50
2018-06-30T12:40:09.291Z,2.97
2018-06-30T12:42:38.147Z,3.20
2018-06-30T12:45:07.010Z,3.03
2018-06-30T12:47:36.775Z,3.25
2018-06-30T12:50:06.319Z,2.70
2018-06-30T12:52:35.460Z,2.67
2018-06-30T12:55:04.628Z,3.10
2018-06-30T12:57:33.438Z,3.10
2018-06-30T13:00:02.297Z,3.00
2018-06-30T13:02:31.887Z,2.70
2018-06-30T13:05:00.729Z,3.15
2018-06-30T13:07:29.571Z,2.90
2018-06-30T13:09:58.536Z,2.90
2018-06-30T13:12:27.363Z,2.90
2018-06-30T13:14:56.955Z,3.20
2018-06-30T13:17:25.741Z,2.70
2018-06-30T13:19:54.581Z,2.70
2018-06-30T13:22:23.420Z,2.87
2018-06-30T13:24:52.261Z,2.90
2018-06-30T13:27:21.119Z,2.58
2018-06-30T13:29:49.957Z,2.80
2018-06-30T13:32:18.798Z,2.65
2018-06-30T13:34:47.691Z,3.05
2018-06-30T13:37:17.277Z,2.97
2018-06-30T13:39:46.210Z,2.90
2018-06-30T13:42:15.095Z,3.10
2018-06-30T13:44:43.956Z,2.90
2018-06-30T13:47:12.738Z,3.05
2018-06-30T13:49:41.659Z,2.80
2018-06-30T13:52:10.689Z,3.00
2018-06-30T13:54:39.491Z,2.85
2018-06-30T13:57:08.491Z,3.00
2018-06-30T13:59:37.438Z,2.78
2018-06-30T14:02:06.336Z,2.83
2018-06-30T14:04:35.324Z,3.00
2018-06-30T14:07:04.209Z,3.00
2018-06-30T14:09:33.092Z,3.20
2018-06-30T14:12:01.893Z,2.70
2018-06-30T14:14:31.864Z,2.95
2018-06-30T14:17:00.550Z,3.03
2018-06-30T14:19:29.518Z,3.08
2018-06-30T14:21:58.509Z,3.05
2018-06-30T14:24:27.434Z,3.10
2018-06-30T14:26:56.234Z,3.03
2018-06-30T14:29:25.161Z,3.00
2018-06-30T14:31:54.928Z,2.92
2018-06-30T14:34:24.590Z,3.03
2018-06-30T14:36:53.428Z,3.10
2018-06-30T14:39:22.318Z,3.55
2018-06-30T14:41:51.137Z,3.33
2018-06-30T14:44:20.719Z,3.35
2018-06-30T14:46:49.556Z,3.28
2018-06-30T14:49:18.416Z,3.22
2018-06-30T14:51:48.259Z,3.42
2018-06-30T14:54:16.982Z,3.33
2018-06-30T14:56:45.904Z,3.40
2018-06-30T14:59:14.812Z,3.33
2018-06-30T15:01:43.605Z,3.10
2018-06-30T15:04:12.464Z,3.78
2018-06-30T15:06:41.286Z,3.20
2018-06-30T15:09:10.133Z,3.95
2018-06-30T15:11:38.978Z,3.87
2018-06-30T15:14:07.833Z,4.12
2018-06-30T15:16:36.670Z,3.70
2018-06-30T15:19:05.561Z,3.85
2018-06-30T15:21:34.406Z,3.85
2018-06-30T15:24:03.324Z,3.72
2018-06-30T15:26:32.175Z,3.95
2018-06-30T15:29:01.036Z,3.70
2018-06-30T15:31:30.038Z,4.20
2018-06-30T15:33:58.838Z,4.20
2018-06-30T15:36:27.696Z,4.22
2018-06-30T15:38:56.536Z,3.97
2018-06-30T15:41:26.214Z,3.87
2018-06-30T15:43:55.061Z,4.30
2018-06-30T15:46:24.093Z,4.30
2018-06-30T15:48:52.935Z,4.32
2018-06-30T15:51:22.507Z,4.18
2018-06-30T15:53:51.457Z,3.80
2018-06-30T15:56:20.254Z,4.22
2018-06-30T15:58:49.104Z,4.37
2018-06-30T16:01:17.961Z,4.30
2018-06-30T16:03:46.812Z,4.45
2018-06-30T16:06:15.690Z,4.43
2018-06-30T16:08:44.533Z,4.70
2018-06-30T16:11:13.369Z,4.78
2018-06-30T16:13:42.272Z,4.68
2018-06-30T16:16:11.139Z,4.18
2018-06-30T16:18:39.955Z,4.53
2018-06-30T16:21:08.799Z,4.57
2018-06-30T16:23:37.816Z,4.57
2018-06-30T16:26:19.740Z,4.45
2018-06-30T16:28:48.573Z,4.18
2018-06-30T16:31:17.631Z,4.65
2018-06-30T16:33:46.853Z,4.55
2018-06-30T16:36:15.524Z,4.57
2018-06-30T16:38:44.369Z,4.40
2018-06-30T16:41:13.206Z,3.85
2018-06-30T16:43:42.159Z,4.40
2018-06-30T16:46:10.902Z,4.47
2018-06-30T16:48:39.787Z,4.20
2018-06-30T16:51:08.902Z,4.60
2018-06-30T16:53:37.750Z,4.10
2018-06-30T16:56:07.286Z,4.15
2018-06-30T16:58:36.145Z,4.40
2018-06-30T17:01:04.986Z,4.03
2018-06-30T17:03:34.585Z,3.92
2018-06-30T17:06:04.204Z,4.10
2018-06-30T17:08:32.998Z,4.10
2018-06-30T17:11:02.683Z,3.78
2018-06-30T17:13:31.517Z,3.83
2018-06-30T17:16:01.099Z,3.30
2018-06-30T17:18:30.683Z,3.50
2018-06-30T17:20:59.516Z,3.80
2018-06-30T17:23:28.589Z,3.37
2018-06-30T17:25:57.503Z,3.50
2018-06-30T17:28:26.287Z,3.93
2018-06-30T17:30:55.123Z,3.62
2018-06-30T17:33:24.003Z,3.40
2018-06-30T17:35:52.834Z,3.60
2018-06-30T17:38:21.675Z,3.47
2018-06-30T17:40:50.536Z,3.15
2018-06-30T17:43:20.126Z,3.33
2018-06-30T17:45:48.964Z,3.10
2018-06-30T17:48:17.816Z,3.00
2018-06-30T17:50:46.658Z,3.28
2018-06-30T17:53:15.547Z,2.85
2018-06-30T17:55:44.389Z,2.85
2018-06-30T17:58:13.967Z,3.03
2018-06-30T18:00:42.850Z,3.05
2018-06-30T18:05:49.578Z,3.10
2018-06-30T18:08:18.432Z,3.37
2018-06-30T18:10:47.252Z,2.80
2018-06-30T18:13:16.098Z,3.00
2018-06-30T18:15:44.992Z,3.00
2018-06-30T18:18:13.767Z,2.60
2018-06-30T18:20:42.607Z,2.58
2018-06-30T18:23:12.206Z,2.67
2018-06-30T18:25:41.039Z,2.47
2018-06-30T18:28:09.868Z,2.50
2018-06-30T18:30:38.703Z,2.28
2018-06-30T18:33:08.358Z,2.40
2018-06-30T18:35:37.164Z,2.43
2018-06-30T18:38:06.006Z,2.17
2018-06-30T18:40:34.873Z,2.10
2018-06-30T18:43:03.706Z,2.10
2018-06-30T18:45:32.566Z,2.00
2018-06-30T18:48:02.161Z,2.05
2018-06-30T18:50:30.987Z,2.05
2018-06-30T18:52:59.837Z,2.20
2018-06-30T18:55:28.693Z,1.92
2018-06-30T18:57:57.722Z,1.77
2018-06-30T19:00:27.328Z,1.50
2018-06-30T19:02:56.161Z,1.50
2018-06-30T19:05:25.016Z,1.70
2018-06-30T19:07:53.859Z,1.50
2018-06-30T19:10:22.820Z,1.40
2018-06-30T19:12:51.560Z,1.58
2018-06-30T19:15:20.429Z,1.70
2018-06-30T19:17:49.266Z,1.70
2018-06-30T19:20:18.117Z,1.70
2018-06-30T19:22:46.967Z,1.55
2018-06-30T19:25:15.822Z,1.50
2018-06-30T19:27:44.712Z,1.40
2018-06-30T19:30:14.310Z,1.60
2018-06-30T19:32:43.175Z,1.65
2018-06-30T19:35:12.027Z,1.60
2018-06-30T19:37:40.863Z,1.60
2018-06-30T19:40:09.708Z,1.42
2018-06-30T19:42:38.556Z,1.75
2018-06-30T19:45:07.398Z,1.55
2018-06-30T19:47:36.267Z,1.30
2018-06-30T19:50:05.865Z,1.37
2018-06-30T19:52:35.484Z,1.48
2018-06-30T19:55:05.094Z,1.23
2018-06-30T19:57:33.894Z,1.30
2018-06-30T20:00:02.839Z,1.27
2018-06-30T20:02:31.688Z,1.40
2018-06-30T20:05:00.528Z,1.20
2018-06-30T20:07:29.391Z,1.20
2018-06-30T20:09:58.233Z,1.20
2018-06-30T20:12:27.093Z,1.02
2018-06-30T20:14:55.927Z,1.10
2018-06-30T20:17:25.535Z,1.00
2018-06-30T20:19:55.136Z,1.00
2018-06-30T20:22:24.741Z,1.00
2018-06-30T20:24:53.583Z,1.12
2018-06-30T20:27:22.429Z,0.90
2018-06-30T20:29:52.043Z,1.02
2018-06-30T20:32:21.890Z,0.90
2018-06-30T20:34:51.080Z,1.00
2018-06-30T20:37:19.930Z,0.90
2018-06-30T20:39:49.539Z,0.93
2018-06-30T20:42:18.383Z,0.82
2018-06-30T20:44:47.970Z,1.08
2018-06-30T20:47:16.809Z,0.85
2018-06-30T20:49:45.747Z,0.70
2018-06-30T20:52:14.517Z,0.90
2018-06-30T20:54:43.356Z,0.70
2018-06-30T20:57:12.263Z,0.80
2018-06-30T20:59:41.096Z,0.80
2018-06-30T21:02:09.967Z,0.77
2018-06-30T21:04:38.839Z,0.80
2018-06-30T21:07:07.691Z,0.90
2018-06-30T21:09:36.526Z,0.70
2018-06-30T21:12:05.377Z,0.60
2018-06-30T21:14:34.300Z,0.90
2018-06-30T21:17:03.386Z,1.00
2018-06-30T21:19:32.238Z,0.68
2018-06-30T21:22:01.117Z,0.82
2018-06-30T21:24:30.024Z,0.80
2018-06-30T21:26:58.818Z,0.80
2018-06-30T21:29:27.657Z,0.80
2018-06-30T21:31:57.243Z,0.68
2018-06-30T21:34:26.105Z,0.82
2018-06-30T21:36:55.689Z,0.77
2018-06-30T21:39:24.558Z,0.85
2018-06-30T21:41:54.137Z,0.62
2018-06-30T21:46:09.584Z,0.80
2018-06-30T21:48:38.458Z,0.98
2018-06-30T21:51:07.273Z,0.80
2018-06-30T21:53:36.863Z,0.80
2018-06-30T21:56:05.713Z,0.80
2018-06-30T21:58:34.548Z,0.75
2018-06-30T22:01:03.389Z,0.60
2018-06-30T22:03:32.224Z,0.82
2018-06-30T22:06:01.067Z,0.75
2018-06-30T22:08:29.916Z,0.80
2018-06-30T22:10:58.807Z,0.60
2018-06-30T22:13:28.326Z,0.73
2018-06-30T22:15:57.183Z,0.95
2018-06-30T22:18:26.093Z,0.80
2018-06-30T22:20:54.891Z,0.82
2018-06-30T22:23:23.761Z,0.80
2018-06-30T22:25:52.586Z,0.88
2018-06-30T22:28:21.429Z,0.80
2018-06-30T22:30:50.273Z,0.62
2018-06-30T22:33:19.851Z,0.60
2018-06-30T22:35:48.693Z,0.88
2018-06-30T22:38:17.529Z,0.62
2018-06-30T22:40:47.405Z,0.70
2018-06-30T22:43:17.018Z,0.70
2018-06-30T22:45:45.859Z,0.82
2018-06-30T22:48:14.699Z,0.70
2018-06-30T22:50:43.552Z,0.80
2018-06-30T22:53:12.382Z,0.50
2018-06-30T22:55:41.221Z,0.52
2018-06-30T22:58:10.069Z,0.77
2018-06-30T23:00:38.917Z,0.65
2018-06-30T23:03:07.751Z,0.90
2018-06-30T23:05:37.176Z,0.70
2018-06-30T23:08:06.756Z,0.75
2018-06-30T23:10:35.607Z,0.77
2018-06-30T23:13:04.452Z,0.90
2018-06-30T23:15:34.027Z,0.93
2018-06-30T23:18:02.905Z,0.80
2018-06-30T23:20:31.743Z,0.70
2018-06-30T23:23:00.594Z,0.70
2018-06-30T23:25:29.431Z,0.77
2018-06-30T23:27:59.046Z,0.70
2018-06-30T23:30:27.853Z,0.50
2018-06-30T23:32:56.695Z,0.65
2018-06-30T23:35:26.275Z,0.98
2018-06-30T23:37:55.179Z,0.80
2018-06-30T23:40:24.029Z,0.75
2018-06-30T23:42:52.863Z,1.10
2018-06-30T23:45:22.457Z,0.70
2018-06-30T23:47:51.303Z,1.00
2018-06-30T23:50:20.159Z,0.80
2018-06-30T23:52:49.751Z,0.60
2018-06-30T23:55:18.578Z,0.90
2018-06-30T23:57:47.415Z,0.70
